createdAt,value
2022-12-26T00:00:55.700Z,68.69
2022-12-26T00:03:22.937Z,67.87
2022-12-26T00:05:53.412Z,67.45
2022-12-26T00:08:21.461Z,67.57
2022-12-26T00:10:48.439Z,67.85
2022-12-26T00:13:40.032Z,68.45
2022-12-26T00:16:11.614Z,68.67
2022-12-26T00:18:38.952Z,67.76
2022-12-26T00:21:07.096Z,67.57
2022-12-26T00:23:34.459Z,68.05
2022-12-26T00:26:05.693Z,68.57
2022-12-26T00:28:32.788Z,69.68
2022-12-26T00:31:03.553Z,69.54
2022-12-26T00:33:30.616Z,68.46
2022-12-26T00:36:02.677Z,68.15
2022-12-26T00:38:31.693Z,68.23
2022-12-26T00:40:58.653Z,68.57
2022-12-26T00:43:25.637Z,69.13
2022-12-26T00:45:54.003Z,69.32
2022-12-26T00:48:21.088Z,68.25
2022-12-26T00:50:47.970Z,67.85
2022-12-26T00:53:14.848Z,67.90
2022-12-26T00:55:41.845Z,68.28
2022-12-26T00:58:08.981Z,68.95
2022-12-26T01:00:36.218Z,69.26
2022-12-26T01:03:04.066Z,68.15
2022-12-26T01:05:31.094Z,67.78
2022-12-26T01:08:21.492Z,68.05
2022-12-26T01:10:46.410Z,69.08
2022-12-26T01:13:13.833Z,70.06
2022-12-26T01:15:40.641Z,70.52
2022-12-26T01:18:08.096Z,69.53
2022-12-26T01:20:35.058Z,69.37
2022-12-26T01:23:01.966Z,69.66
2022-12-26T01:25:29.131Z,70.58
2022-12-26T01:27:56.518Z,71.10
2022-12-26T01:30:24.512Z,71.37
2022-12-26T01:32:51.483Z,70.15
2022-12-26T01:35:19.471Z,69.85
2022-12-26T01:37:46.273Z,69.77
2022-12-26T01:40:13.452Z,69.76
2022-12-26T01:42:40.720Z,70.21
2022-12-26T01:45:24.659Z,70.37
2022-12-26T01:47:53.148Z,69.03
2022-12-26T01:50:29.158Z,68.59
2022-12-26T01:52:57.353Z,68.69
2022-12-26T01:55:24.328Z,68.99
2022-12-26T01:58:02.793Z,69.50
2022-12-26T02:00:29.845Z,69.66
2022-12-26T02:03:15.360Z,68.65
2022-12-26T02:05:42.510Z,68.33
2022-12-26T02:08:14.915Z,68.68
2022-12-26T02:10:50.830Z,69.06
2022-12-26T02:13:18.503Z,69.85
2022-12-26T02:15:45.513Z,69.84
2022-12-26T02:18:12.329Z,68.71
2022-12-26T02:21:10.041Z,68.14
2022-12-26T02:24:19.217Z,68.29
2022-12-26T02:26:48.778Z,68.70
2022-12-26T02:29:55.846Z,69.47
2022-12-26T02:32:53.707Z,69.28
2022-12-26T02:35:35.600Z,68.61
2022-12-26T02:38:34.416Z,68.70
2022-12-26T02:41:48.313Z,68.84
2022-12-26T02:44:43.402Z,69.19
2022-12-26T02:47:25.928Z,69.68
2022-12-26T02:50:22.700Z,69.24
2022-12-26T02:53:30.778Z,67.78
2022-12-26T02:56:19.292Z,67.62
2022-12-26T02:59:14.500Z,67.83
2022-12-26T03:02:03.271Z,68.41
2022-12-26T03:04:51.282Z,69.33
2022-12-26T03:07:42.919Z,68.77
2022-12-26T03:10:44.369Z,67.45
2022-12-26T03:13:12.751Z,67.16
2022-12-26T03:16:03.043Z,67.57
2022-12-26T03:18:57.155Z,68.32
2022-12-26T03:21:18.317Z,69.10
2022-12-26T03:23:45.280Z,68.95
2022-12-26T03:26:35.583Z,67.71
2022-12-26T03:29:21.589Z,67.00
2022-12-26T03:31:48.425Z,67.82
2022-12-26T03:34:18.639Z,69.18
2022-12-26T03:37:13.102Z,70.81
2022-12-26T03:40:15.111Z,70.61
2022-12-26T03:43:16.165Z,69.22
2022-12-26T03:46:04.915Z,68.99
2022-12-26T03:48:58.429Z,69.18
2022-12-26T03:52:15.804Z,69.62
2022-12-26T03:55:07.197Z,70.28
2022-12-26T03:57:57.983Z,69.31
2022-12-26T04:00:43.442Z,67.51
2022-12-26T04:03:31.334Z,67.08
2022-12-26T04:06:17.855Z,68.01
2022-12-26T04:09:29.465Z,69.01
2022-12-26T04:12:15.238Z,70.38
2022-12-26T04:15:13.648Z,69.57
2022-12-26T04:18:22.678Z,68.45
2022-12-26T04:21:30.916Z,69.20
2022-12-26T04:24:19.050Z,70.48
2022-12-26T04:27:05.084Z,71.76
2022-12-26T04:29:50.714Z,71.35
2022-12-26T04:32:50.079Z,70.19
2022-12-26T04:35:39.556Z,70.00
2022-12-26T04:38:25.197Z,70.46
2022-12-26T04:41:16.008Z,71.46
2022-12-26T04:44:01.647Z,72.22
2022-12-26T04:46:29.775Z,71.51
2022-12-26T04:49:15.440Z,69.90
2022-12-26T04:51:42.473Z,69.86
2022-12-26T04:54:09.326Z,70.41
2022-12-26T04:56:36.180Z,71.36
2022-12-26T04:59:03.351Z,72.27
2022-12-26T05:01:49.396Z,72.43
2022-12-26T05:04:36.873Z,71.57
2022-12-26T05:07:23.358Z,71.88
2022-12-26T05:09:52.170Z,72.82
2022-12-26T05:12:19.222Z,73.99
2022-12-26T05:14:46.106Z,73.62
2022-12-26T05:17:32.164Z,72.39
2022-12-26T05:20:17.935Z,72.53
2022-12-26T05:23:05.922Z,73.23
2022-12-26T05:25:54.067Z,74.61
2022-12-26T05:28:39.818Z,73.82
2022-12-26T05:31:06.888Z,72.87
2022-12-26T05:33:54.760Z,72.87
2022-12-26T05:36:22.629Z,73.72
2022-12-26T05:38:49.564Z,74.83
2022-12-26T05:41:16.591Z,74.56
2022-12-26T05:43:44.872Z,73.28
2022-12-26T05:46:12.035Z,72.95
2022-12-26T05:48:39.757Z,73.45
2022-12-26T05:51:06.821Z,74.14
2022-12-26T05:53:33.910Z,75.19
2022-12-26T05:56:13.834Z,74.69
2022-12-26T05:58:40.892Z,73.30
2022-12-26T06:01:12.788Z,73.04
2022-12-26T06:03:40.317Z,73.12
2022-12-26T06:06:07.409Z,73.90
2022-12-26T06:08:37.071Z,74.38
2022-12-26T06:11:09.113Z,74.16
2022-12-26T06:13:36.959Z,72.93
2022-12-26T06:16:08.196Z,72.79
2022-12-26T06:18:35.399Z,73.28
2022-12-26T06:21:06.924Z,74.06
2022-12-26T06:23:34.588Z,74.95
2022-12-26T06:26:02.096Z,74.38
2022-12-26T06:28:29.537Z,73.01
2022-12-26T06:31:07.898Z,72.61
2022-12-26T06:33:36.310Z,73.32
2022-12-26T06:36:14.347Z,74.50
2022-12-26T06:38:41.497Z,74.25
2022-12-26T06:41:09.736Z,72.92
2022-12-26T06:43:36.689Z,73.01
2022-12-26T06:46:04.576Z,73.57
2022-12-26T06:48:32.358Z,74.54
2022-12-26T06:51:06.937Z,74.54
2022-12-26T06:53:34.230Z,73.16
2022-12-26T06:56:12.389Z,73.46
2022-12-26T06:58:39.362Z,74.10
2022-12-26T07:01:16.695Z,74.99
2022-12-26T07:03:50.725Z,74.34
2022-12-26T07:06:24.319Z,72.99
2022-12-26T07:08:52.361Z,73.12
2022-12-26T07:11:21.887Z,73.61
2022-12-26T07:13:48.835Z,74.47
2022-12-26T07:16:16.001Z,74.07
2022-12-26T07:18:42.971Z,72.83
2022-12-26T07:21:11.717Z,73.14
2022-12-26T07:23:38.662Z,73.51
2022-12-26T07:26:06.388Z,73.64
2022-12-26T07:28:33.326Z,74.22
2022-12-26T07:31:00.849Z,73.73
2022-12-26T07:33:28.635Z,72.60
2022-12-26T07:36:00.031Z,72.11
2022-12-26T07:38:28.138Z,72.24
2022-12-26T07:40:56.569Z,72.51
2022-12-26T07:43:23.887Z,73.19
2022-12-26T07:45:51.108Z,72.89
2022-12-26T07:48:18.109Z,71.57
2022-12-26T07:50:49.427Z,71.21
2022-12-26T07:53:16.335Z,71.46
2022-12-26T07:55:43.173Z,72.14
2022-12-26T07:58:10.152Z,72.69
2022-12-26T08:00:36.981Z,72.49
2022-12-26T08:03:07.738Z,71.39
2022-12-26T08:05:35.193Z,71.15
2022-12-26T08:08:02.342Z,71.33
2022-12-26T08:10:29.423Z,71.98
2022-12-26T08:12:56.381Z,72.48
2022-12-26T08:15:23.457Z,72.44
2022-12-26T08:17:50.677Z,71.37
2022-12-26T08:20:17.678Z,70.87
2022-12-26T08:22:44.621Z,71.13
2022-12-26T08:25:13.407Z,71.39
2022-12-26T08:27:44.306Z,71.92
2022-12-26T08:30:12.609Z,71.91
2022-12-26T08:32:42.466Z,71.11
2022-12-26T08:35:11.252Z,70.88
2022-12-26T08:37:38.208Z,70.70
2022-12-26T08:40:05.786Z,71.27
2022-12-26T08:42:34.639Z,71.67
2022-12-26T08:47:26.433Z,71.48
2022-12-26T08:49:53.566Z,70.01
2022-12-26T08:52:20.420Z,70.87
2022-12-26T08:54:47.937Z,71.83
2022-12-26T08:57:15.688Z,72.40
2022-12-26T08:59:44.988Z,72.16
2022-12-26T09:02:12.356Z,71.27
2022-12-26T09:04:39.460Z,70.76
2022-12-26T09:07:08.284Z,70.94
2022-12-26T09:09:35.591Z,71.34
2022-12-26T09:12:02.988Z,72.02
2022-12-26T09:14:29.928Z,71.96
2022-12-26T09:16:57.189Z,71.01
2022-12-26T09:19:24.599Z,70.32
2022-12-26T09:22:11.485Z,69.96
2022-12-26T09:24:38.518Z,71.43
2022-12-26T09:27:05.483Z,72.19
2022-12-26T09:29:34.117Z,71.30
2022-12-26T09:32:01.117Z,70.41
2022-12-26T09:34:27.915Z,70.77
2022-12-26T09:36:54.741Z,70.64
2022-12-26T09:39:21.754Z,70.84
2022-12-26T09:42:07.514Z,71.18
2022-12-26T09:44:45.817Z,70.56
2022-12-26T09:47:33.923Z,69.64
2022-12-26T09:50:06.180Z,70.35
2022-12-26T09:52:45.881Z,71.04
2022-12-26T09:55:40.616Z,71.25
2022-12-26T09:58:29.971Z,72.37
2022-12-26T12:48:10.245Z,83.78
2022-12-26T12:50:39.263Z,79.58
2022-12-26T12:53:52.693Z,73.47
2022-12-26T12:56:38.396Z,69.62
2022-12-26T12:59:47.674Z,69.28
2022-12-26T13:02:30.116Z,69.09
2022-12-26T13:05:03.441Z,70.57
2022-12-26T13:07:35.194Z,70.70
2022-12-26T13:10:03.549Z,68.14
2022-12-26T13:12:37.278Z,67.96
2022-12-26T13:15:09.378Z,68.30
2022-12-26T13:17:41.332Z,68.08
2022-12-26T13:20:21.757Z,68.11
2022-12-26T13:23:13.803Z,68.10
2022-12-26T13:25:46.918Z,68.09
2022-12-26T13:28:23.447Z,65.10
2022-12-26T13:30:54.657Z,64.99
2022-12-26T13:33:21.524Z,65.55
2022-12-26T13:35:52.789Z,66.27
2022-12-26T13:38:20.771Z,66.96
2022-12-26T13:40:56.959Z,68.53
2022-12-26T13:43:43.018Z,67.64
2022-12-26T13:46:42.518Z,66.79
2022-12-26T13:49:28.190Z,66.02
2022-12-26T13:52:00.182Z,67.55
2022-12-26T13:54:28.005Z,67.72
2022-12-26T13:57:04.857Z,67.79
2022-12-26T13:59:55.896Z,67.40
2022-12-26T14:03:15.293Z,66.40
2022-12-26T14:05:40.731Z,65.82
2022-12-26T14:08:54.730Z,66.80
2022-12-26T14:11:28.121Z,68.12
2022-12-26T14:14:21.997Z,69.11
2022-12-26T14:16:48.865Z,68.96
2022-12-26T14:19:54.876Z,67.37
2022-12-26T14:22:33.877Z,66.89
2022-12-26T14:25:00.962Z,67.38
2022-12-26T14:27:40.960Z,67.97
2022-12-26T14:30:46.045Z,68.25
2022-12-26T14:33:25.102Z,69.54
2022-12-26T14:36:16.993Z,68.71
2022-12-26T14:39:23.011Z,67.17
2022-12-26T14:42:27.151Z,66.79
2022-12-26T14:44:57.683Z,67.69
2022-12-26T14:47:48.444Z,68.59
2022-12-26T14:50:40.638Z,69.59
2022-12-26T14:53:20.735Z,68.15
2022-12-26T14:55:48.007Z,66.36
2022-12-26T14:58:21.124Z,66.44
2022-12-26T15:00:48.378Z,67.23
2022-12-26T15:03:27.492Z,67.65
2022-12-26T15:05:54.315Z,68.25
2022-12-26T15:08:54.067Z,68.72
2022-12-26T15:11:39.931Z,68.42
2022-12-26T15:14:28.257Z,66.44
2022-12-26T15:17:07.863Z,65.98
2022-12-26T15:20:03.114Z,66.60
2022-12-26T15:22:50.782Z,67.54
2022-12-26T15:25:51.857Z,68.71
2022-12-26T15:28:37.458Z,67.69
2022-12-26T15:31:31.645Z,66.64
2022-12-26T15:34:23.731Z,66.50
2022-12-26T15:37:45.694Z,67.32
2022-12-26T15:40:15.195Z,67.86
2022-12-26T15:42:52.430Z,68.95
2022-12-26T15:45:27.928Z,68.53
2022-12-26T15:48:18.984Z,67.19
2022-12-26T15:50:56.832Z,66.94
2022-12-26T15:53:36.080Z,67.22
2022-12-26T15:56:14.505Z,67.28
2022-12-26T15:58:52.512Z,67.87
2022-12-26T16:01:39.858Z,68.79
2022-12-26T16:04:13.909Z,68.61
2022-12-26T16:06:49.940Z,67.14
2022-12-26T16:09:45.649Z,66.58
2022-12-26T16:12:32.224Z,67.03
2022-12-26T16:15:00.367Z,67.15
2022-12-26T16:17:28.100Z,68.21
2022-12-26T16:19:55.041Z,68.37
2022-12-26T16:22:46.919Z,67.11
2022-12-26T16:25:23.401Z,66.57
2022-12-26T16:27:52.302Z,67.08
2022-12-26T16:30:21.974Z,67.17
2022-12-26T16:32:48.931Z,68.11
2022-12-26T16:35:38.656Z,68.20
2022-12-26T16:38:06.859Z,67.03
2022-12-26T16:40:37.563Z,66.66
2022-12-26T16:43:23.920Z,66.55
2022-12-26T16:45:54.536Z,66.99
2022-12-26T16:48:23.344Z,67.50
2022-12-26T16:50:52.535Z,68.23
2022-12-26T16:53:25.232Z,68.04
2022-12-26T16:55:55.876Z,66.63
2022-12-26T16:58:24.317Z,66.19
2022-12-26T17:01:11.945Z,66.40
2022-12-26T17:03:54.261Z,67.27
2022-12-26T17:06:40.416Z,68.57
2022-12-26T17:09:09.759Z,70.04
2022-12-26T17:12:04.981Z,68.71
2022-12-26T17:14:33.200Z,67.63
2022-12-26T17:17:26.020Z,67.61
2022-12-26T17:19:54.875Z,67.54
2022-12-26T17:22:32.135Z,68.01
2022-12-26T17:25:17.524Z,68.51
2022-12-26T17:27:45.103Z,68.13
2022-12-26T17:30:31.540Z,66.78
2022-12-26T17:33:03.854Z,66.40
2022-12-26T17:35:47.040Z,66.51
2022-12-26T17:38:21.008Z,66.78
2022-12-26T17:40:47.893Z,67.31
2022-12-26T17:43:14.726Z,68.03
2022-12-26T17:45:47.008Z,68.23
2022-12-26T17:48:14.396Z,67.01
2022-12-26T17:50:45.849Z,66.38
2022-12-26T17:53:12.668Z,66.57
2022-12-26T17:55:39.730Z,66.81
2022-12-26T17:58:10.901Z,67.06
2022-12-26T18:00:37.907Z,67.74
2022-12-26T18:03:04.876Z,67.99
2022-12-26T18:05:33.229Z,66.79
2022-12-26T18:08:00.204Z,66.05
2022-12-26T18:10:31.557Z,66.10
2022-12-26T18:12:58.720Z,66.61
2022-12-26T18:15:27.214Z,66.89
2022-12-26T18:17:54.213Z,67.40
2022-12-26T18:20:25.718Z,67.60
2022-12-26T18:22:52.927Z,66.37
2022-12-26T18:25:21.799Z,65.83
2022-12-26T18:27:48.898Z,66.08
2022-12-26T18:30:17.717Z,66.57
2022-12-26T18:32:44.790Z,67.23
2022-12-26T18:35:12.135Z,68.14
2022-12-26T18:37:39.094Z,67.99
2022-12-26T18:40:06.603Z,66.64
2022-12-26T18:42:33.567Z,66.13
2022-12-26T18:45:00.597Z,66.41
2022-12-26T18:47:27.541Z,66.94
2022-12-26T18:49:54.473Z,67.19
2022-12-26T18:52:21.314Z,68.25
2022-12-26T18:54:48.274Z,67.90
2022-12-26T18:57:19.439Z,66.82
2022-12-26T18:59:48.241Z,66.22
2022-12-26T20:53:27.294Z,86.97
2022-12-26T20:55:54.641Z,82.56
2022-12-26T20:58:25.282Z,78.65
2022-12-26T21:01:01.696Z,75.60
2022-12-26T21:03:29.261Z,73.89
2022-12-26T21:06:08.373Z,73.43
2022-12-26T21:08:35.872Z,73.21
2022-12-26T21:11:09.696Z,73.34
2022-12-26T21:13:37.618Z,72.81
2022-12-26T21:16:18.159Z,71.15
2022-12-26T21:18:45.112Z,70.18
2022-12-26T21:21:13.924Z,70.30
2022-12-26T21:23:40.815Z,70.30
2022-12-26T21:26:07.972Z,70.74
2022-12-26T21:28:34.902Z,70.68
2022-12-26T21:31:02.364Z,69.15
2022-12-26T21:33:30.329Z,68.72
2022-12-26T21:35:57.484Z,68.97
2022-12-26T21:38:27.576Z,69.32
2022-12-26T21:40:54.441Z,69.99
2022-12-26T21:43:22.520Z,69.78
2022-12-26T21:45:49.558Z,68.76
2022-12-26T21:48:16.633Z,68.15
2022-12-26T21:50:45.784Z,68.44
2022-12-26T21:53:13.135Z,68.97
2022-12-26T21:55:40.336Z,69.72
2022-12-26T21:58:07.688Z,69.77
2022-12-26T22:00:35.553Z,68.58
2022-12-26T22:03:21.360Z,68.11
2022-12-26T22:05:48.386Z,68.36
2022-12-26T22:08:15.470Z,69.18
2022-12-26T22:11:23.110Z,70.12
2022-12-26T22:13:50.248Z,68.97
2022-12-26T22:16:17.202Z,68.67
2022-12-26T22:18:46.163Z,68.37
2022-12-26T22:21:20.673Z,68.31
2022-12-26T22:23:50.576Z,68.80
2022-12-26T22:26:18.493Z,69.76
2022-12-26T22:28:45.536Z,69.56
2022-12-26T22:31:31.721Z,68.20
2022-12-26T22:34:09.959Z,67.53
2022-12-26T22:36:37.088Z,67.77
2022-12-26T22:39:04.137Z,68.48
2022-12-26T22:41:31.187Z,68.93
2022-12-26T22:43:58.181Z,68.73
2022-12-26T22:46:25.216Z,68.46
2022-12-26T22:48:52.219Z,68.22
2022-12-26T22:51:24.041Z,68.54
2022-12-26T22:53:54.014Z,69.64
2022-12-26T22:56:22.002Z,70.08
2022-12-26T22:58:53.064Z,70.04
2022-12-26T23:01:20.470Z,69.41
2022-12-26T23:03:47.437Z,68.27
2022-12-26T23:06:26.682Z,68.01
2022-12-26T23:08:56.726Z,69.48
2022-12-26T23:11:28.802Z,70.54
2022-12-26T23:14:01.521Z,69.64
2022-12-26T23:16:31.540Z,67.97
2022-12-26T23:19:23.887Z,67.29
2022-12-26T23:21:50.998Z,68.22
2022-12-26T23:24:20.739Z,67.97
2022-12-26T23:26:49.601Z,68.33
2022-12-26T23:29:37.288Z,69.68
2022-12-26T23:32:04.699Z,69.02
2022-12-26T23:34:31.960Z,67.89
2022-12-26T23:36:59.054Z,66.91
2022-12-26T23:39:28.370Z,66.72
2022-12-26T23:41:55.365Z,66.86
2022-12-26T23:44:22.474Z,67.72
2022-12-26T23:46:49.557Z,67.84
2022-12-26T23:49:16.914Z,68.45
2022-12-26T23:51:43.828Z,67.23
2022-12-26T23:54:10.821Z,67.00
2022-12-26T23:56:37.821Z,67.34
2022-12-26T23:59:05.339Z,67.85
